sensor_id;sensor_type;location;lat;lon;timestamp;temperature;humidity
64599;SHT31;51008;51.504;11.548;2023-05-10T00:02:37;8.90;81.28
64599;SHT31;51008;51.504;11.548;2023-05-10T00:07:38;8.84;81.41
64599;SHT31;51008;51.504;11.548;2023-05-10T00:12:39;8.77;81.99
64599;SHT31;51008;51.504;11.548;2023-05-10T00:17:40;8.73;82.08
64599;SHT31;51008;51.504;11.548;2023-05-10T00:22:41;8.69;82.24
64599;SHT31;51008;51.504;11.548;2023-05-10T00:27:42;8.61;82.00
64599;SHT31;51008;51.504;11.548;2023-05-10T00:32:43;8.49;82.43
64599;SHT31;51008;51.504;11.548;2023-05-10T00:37:44;8.37;82.80
64599;SHT31;51008;51.504;11.548;2023-05-10T00:42:45;8.28;83.23
64599;SHT31;51008;51.504;11.548;2023-05-10T00:47:46;8.31;83.64
64599;SHT31;51008;51.504;11.548;2023-05-10T00:52:47;8.30;83.79
64599;SHT31;51008;51.504;11.548;2023-05-10T00:57:48;8.21;84.46
64599;SHT31;51008;51.504;11.548;2023-05-10T01:02:49;8.21;84.80
64599;SHT31;51008;51.504;11.548;2023-05-10T01:07:50;8.17;85.01
64599;SHT31;51008;51.504;11.548;2023-05-10T01:12:51;8.13;85.75
64599;SHT31;51008;51.504;11.548;2023-05-10T01:17:53;8.10;85.67
64599;SHT31;51008;51.504;11.548;2023-05-10T01:23:25;8.14;85.75
64599;SHT31;51008;51.504;11.548;2023-05-10T01:28:56;8.17;85.47
64599;SHT31;51008;51.504;11.548;2023-05-10T01:34:02;8.20;85.51
64599;SHT31;51008;51.504;11.548;2023-05-10T01:49:26;7.99;86.52
64599;SHT31;51008;51.504;11.548;2023-05-10T01:54:30;8.06;86.75
64599;SHT31;51008;51.504;11.548;2023-05-10T01:59:35;8.02;86.19
64599;SHT31;51008;51.504;11.548;2023-05-10T02:04:38;8.00;86.71
64599;SHT31;51008;51.504;11.548;2023-05-10T02:09:41;8.10;86.71
64599;SHT31;51008;51.504;11.548;2023-05-10T02:14:44;8.16;86.91
64599;SHT31;51008;51.504;11.548;2023-05-10T02:19:47;8.10;86.62
64599;SHT31;51008;51.504;11.548;2023-05-10T02:24:49;8.10;86.72
64599;SHT31;51008;51.504;11.548;2023-05-10T02:29:51;8.20;86.94
64599;SHT31;51008;51.504;11.548;2023-05-10T02:34:54;8.26;87.26
64599;SHT31;51008;51.504;11.548;2023-05-10T02:39:56;8.21;86.89
64599;SHT31;51008;51.504;11.548;2023-05-10T02:45:00;8.21;86.80
64599;SHT31;51008;51.504;11.548;2023-05-10T02:50:01;8.27;87.20
64599;SHT31;51008;51.504;11.548;2023-05-10T02:55:04;8.34;87.07
64599;SHT31;51008;51.504;11.548;2023-05-10T03:00:06;8.40;87.35
64599;SHT31;51008;51.504;11.548;2023-05-10T03:05:08;8.41;87.44
64599;SHT31;51008;51.504;11.548;2023-05-10T03:10:09;8.48;87.07
64599;SHT31;51008;51.504;11.548;2023-05-10T03:15:19;8.52;87.27
64599;SHT31;51008;51.504;11.548;2023-05-10T03:20:29;8.58;86.97
64599;SHT31;51008;51.504;11.548;2023-05-10T03:25:33;8.55;87.09
64599;SHT31;51008;51.504;11.548;2023-05-10T03:30:35;8.62;87.01
64599;SHT31;51008;51.504;11.548;2023-05-10T03:35:36;8.71;87.64
64599;SHT31;51008;51.504;11.548;2023-05-10T03:40:39;8.82;87.73
64599;SHT31;51008;51.504;11.548;2023-05-10T03:45:40;8.86;87.64
64599;SHT31;51008;51.504;11.548;2023-05-10T03:50:41;8.97;87.35
64599;SHT31;51008;51.504;11.548;2023-05-10T03:55:42;9.13;87.01
64599;SHT31;51008;51.504;11.548;2023-05-10T04:00:43;9.32;86.76
64599;SHT31;51008;51.504;11.548;2023-05-10T04:05:45;9.58;85.23
64599;SHT31;51008;51.504;11.548;2023-05-10T04:10:46;9.78;84.38
64599;SHT31;51008;51.504;11.548;2023-05-10T04:15:47;9.91;83.78
64599;SHT31;51008;51.504;11.548;2023-05-10T04:20:48;9.79;84.23
64599;SHT31;51008;51.504;11.548;2023-05-10T04:25:49;9.72;84.27
64599;SHT31;51008;51.504;11.548;2023-05-10T04:30:50;9.56;85.08
64599;SHT31;51008;51.504;11.548;2023-05-10T04:35:51;9.63;85.52
64599;SHT31;51008;51.504;11.548;2023-05-10T04:40:52;9.73;84.45
64599;SHT31;51008;51.504;11.548;2023-05-10T04:45:56;9.85;84.46
64599;SHT31;51008;51.504;11.548;2023-05-10T04:50:57;10.00;84.38
64599;SHT31;51008;51.504;11.548;2023-05-10T04:55:58;10.10;83.76
64599;SHT31;51008;51.504;11.548;2023-05-10T05:01:06;10.24;83.35
64599;SHT31;51008;51.504;11.548;2023-05-10T05:06:07;10.37;83.54
64599;SHT31;51008;51.504;11.548;2023-05-10T05:11:08;10.27;84.35
64599;SHT31;51008;51.504;11.548;2023-05-10T05:16:09;10.37;83.79
64599;SHT31;51008;51.504;11.548;2023-05-10T05:21:16;10.52;83.95
64599;SHT31;51008;51.504;11.548;2023-05-10T05:26:17;10.69;82.92
64599;SHT31;51008;51.504;11.548;2023-05-10T05:31:18;10.83;82.88
64599;SHT31;51008;51.504;11.548;2023-05-10T05:36:19;10.97;82.64
64599;SHT31;51008;51.504;11.548;2023-05-10T05:41:20;11.24;82.56
64599;SHT31;51008;51.504;11.548;2023-05-10T05:46:21;11.35;83.09
64599;SHT31;51008;51.504;11.548;2023-05-10T05:51:22;11.65;82.34
64599;SHT31;51008;51.504;11.548;2023-05-10T05:56:23;12.00;82.46
64599;SHT31;51008;51.504;11.548;2023-05-10T06:01:24;12.32;81.37
64599;SHT31;51008;51.504;11.548;2023-05-10T06:06:25;12.46;81.11
64599;SHT31;51008;51.504;11.548;2023-05-10T06:11:26;12.56;80.11
64599;SHT31;51008;51.504;11.548;2023-05-10T06:16:27;12.76;79.91
64599;SHT31;51008;51.504;11.548;2023-05-10T06:21:28;12.83;80.68
64599;SHT31;51008;51.504;11.548;2023-05-10T06:26:29;12.94;79.16
64599;SHT31;51008;51.504;11.548;2023-05-10T06:31:30;13.18;79.74
64599;SHT31;51008;51.504;11.548;2023-05-10T06:36:31;13.40;79.63
64599;SHT31;51008;51.504;11.548;2023-05-10T06:41:32;13.59;79.47
64599;SHT31;51008;51.504;11.548;2023-05-10T06:46:33;13.80;78.84
64599;SHT31;51008;51.504;11.548;2023-05-10T06:51:34;13.95;74.20
64599;SHT31;51008;51.504;11.548;2023-05-10T06:56:35;14.10;74.73
64599;SHT31;51008;51.504;11.548;2023-05-10T07:01:35;14.25;74.25
64599;SHT31;51008;51.504;11.548;2023-05-10T07:06:36;14.24;74.02
64599;SHT31;51008;51.504;11.548;2023-05-10T07:11:37;14.30;73.76
64599;SHT31;51008;51.504;11.548;2023-05-10T07:16:38;14.36;74.10
64599;SHT31;51008;51.504;11.548;2023-05-10T07:21:39;14.62;74.81
64599;SHT31;51008;51.504;11.548;2023-05-10T07:26:40;14.77;73.62
64599;SHT31;51008;51.504;11.548;2023-05-10T07:31:41;14.90;73.91
64599;SHT31;51008;51.504;11.548;2023-05-10T07:36:42;14.99;75.00
64599;SHT31;51008;51.504;11.548;2023-05-10T07:41:43;15.25;74.65
64599;SHT31;51008;51.504;11.548;2023-05-10T07:46:44;15.43;74.89
64599;SHT31;51008;51.504;11.548;2023-05-10T07:51:45;15.60;74.88
64599;SHT31;51008;51.504;11.548;2023-05-10T07:56:46;15.63;74.68
64599;SHT31;51008;51.504;11.548;2023-05-10T08:01:47;15.74;75.79
64599;SHT31;51008;51.504;11.548;2023-05-10T08:06:48;15.97;75.97
64599;SHT31;51008;51.504;11.548;2023-05-10T08:11:49;16.11;75.64
64599;SHT31;51008;51.504;11.548;2023-05-10T08:16:51;16.33;75.89
64599;SHT31;51008;51.504;11.548;2023-05-10T08:21:52;16.18;76.98
64599;SHT31;51008;51.504;11.548;2023-05-10T08:26:53;16.21;77.88
64599;SHT31;51008;51.504;11.548;2023-05-10T08:31:54;16.19;77.81
64599;SHT31;51008;51.504;11.548;2023-05-10T08:36:55;16.13;79.45
64599;SHT31;51008;51.504;11.548;2023-05-10T08:41:58;15.95;80.76
64599;SHT31;51008;51.504;11.548;2023-05-10T08:47:04;15.73;81.52
64599;SHT31;51008;51.504;11.548;2023-05-10T08:52:05;15.70;81.46
64599;SHT31;51008;51.504;11.548;2023-05-10T08:57:07;15.49;83.05
64599;SHT31;51008;51.504;11.548;2023-05-10T09:02:10;15.46;83.86
64599;SHT31;51008;51.504;11.548;2023-05-10T09:07:12;15.52;83.55
64599;SHT31;51008;51.504;11.548;2023-05-10T09:12:13;15.29;84.54
64599;SHT31;51008;51.504;11.548;2023-05-10T09:17:14;15.38;83.80
64599;SHT31;51008;51.504;11.548;2023-05-10T09:22:16;15.52;83.62
64599;SHT31;51008;51.504;11.548;2023-05-10T09:27:19;15.57;83.57
64599;SHT31;51008;51.504;11.548;2023-05-10T09:32:44;15.52;83.73
64599;SHT31;51008;51.504;11.548;2023-05-10T09:37:47;15.56;84.23
64599;SHT31;51008;51.504;11.548;2023-05-10T09:43:08;15.52;84.86
64599;SHT31;51008;51.504;11.548;2023-05-10T09:48:09;15.60;85.42
64599;SHT31;51008;51.504;11.548;2023-05-10T09:53:14;15.52;85.08
64599;SHT31;51008;51.504;11.548;2023-05-10T09:58:15;15.53;85.71
64599;SHT31;51008;51.504;11.548;2023-05-10T10:03:18;15.44;86.68
64599;SHT31;51008;51.504;11.548;2023-05-10T10:08:19;15.47;87.33
64599;SHT31;51008;51.504;11.548;2023-05-10T10:13:20;15.42;87.17
64599;SHT31;51008;51.504;11.548;2023-05-10T10:18:22;15.33;87.07
64599;SHT31;51008;51.504;11.548;2023-05-10T10:23:23;15.40;87.05
64599;SHT31;51008;51.504;11.548;2023-05-10T10:28:30;15.54;87.72
64599;SHT31;51008;51.504;11.548;2023-05-10T10:33:51;15.61;87.66
64599;SHT31;51008;51.504;11.548;2023-05-10T10:38:55;15.74;87.84
64599;SHT31;51008;51.504;11.548;2023-05-10T10:49:22;15.95;86.95
64599;SHT31;51008;51.504;11.548;2023-05-10T10:54:27;16.06;88.28
64599;SHT31;51008;51.504;11.548;2023-05-10T10:59:29;15.97;88.49
64599;SHT31;51008;51.504;11.548;2023-05-10T11:04:41;16.22;89.23
64599;SHT31;51008;51.504;11.548;2023-05-10T11:09:42;16.26;88.24
64599;SHT31;51008;51.504;11.548;2023-05-10T11:14:50;16.21;87.40
64599;SHT31;51008;51.504;11.548;2023-05-10T11:20:08;16.50;87.76
64599;SHT31;51008;51.504;11.548;2023-05-10T11:25:09;16.49;87.04
64599;SHT31;51008;51.504;11.548;2023-05-10T11:30:11;16.57;87.25
64599;SHT31;51008;51.504;11.548;2023-05-10T11:35:12;16.49;85.94
64599;SHT31;51008;51.504;11.548;2023-05-10T11:40:13;16.23;85.95
64599;SHT31;51008;51.504;11.548;2023-05-10T11:45:14;15.95;86.88
64599;SHT31;51008;51.504;11.548;2023-05-10T11:50:16;15.94;87.12
64599;SHT31;51008;51.504;11.548;2023-05-10T11:55:17;15.84;86.91
64599;SHT31;51008;51.504;11.548;2023-05-10T12:00:19;15.70;88.15
64599;SHT31;51008;51.504;11.548;2023-05-10T12:05:20;15.71;88.80
64599;SHT31;51008;51.504;11.548;2023-05-10T12:10:26;15.77;88.67
64599;SHT31;51008;51.504;11.548;2023-05-10T12:15:27;15.83;88.81
64599;SHT31;51008;51.504;11.548;2023-05-10T12:20:28;15.90;88.49
64599;SHT31;51008;51.504;11.548;2023-05-10T12:25:31;16.00;87.51
64599;SHT31;51008;51.504;11.548;2023-05-10T12:30:34;15.98;87.08
64599;SHT31;51008;51.504;11.548;2023-05-10T12:35:53;16.22;85.27
64599;SHT31;51008;51.504;11.548;2023-05-10T12:40:59;16.56;86.04
64599;SHT31;51008;51.504;11.548;2023-05-10T12:46:27;16.84;83.33
64599;SHT31;51008;51.504;11.548;2023-05-10T12:51:28;17.02;80.10
64599;SHT31;51008;51.504;11.548;2023-05-10T12:56:29;17.30;79.61
64599;SHT31;51008;51.504;11.548;2023-05-10T13:01:30;17.44;81.73
64599;SHT31;51008;51.504;11.548;2023-05-10T13:06:31;17.18;78.69
64599;SHT31;51008;51.504;11.548;2023-05-10T13:11:32;17.15;80.20
64599;SHT31;51008;51.504;11.548;2023-05-10T13:16:33;17.36;80.40
64599;SHT31;51008;51.504;11.548;2023-05-10T13:21:34;17.36;80.63
64599;SHT31;51008;51.504;11.548;2023-05-10T13:26:35;17.55;80.74
64599;SHT31;51008;51.504;11.548;2023-05-10T13:31:36;17.61;80.03
64599;SHT31;51008;51.504;11.548;2023-05-10T13:36:37;17.85;80.13
64599;SHT31;51008;51.504;11.548;2023-05-10T13:41:38;18.26;78.61
64599;SHT31;51008;51.504;11.548;2023-05-10T13:46:39;18.47;76.00
64599;SHT31;51008;51.504;11.548;2023-05-10T13:51:40;18.36;75.24
64599;SHT31;51008;51.504;11.548;2023-05-10T13:56:42;18.40;75.73
64599;SHT31;51008;51.504;11.548;2023-05-10T14:01:43;18.33;74.98
64599;SHT31;51008;51.504;11.548;2023-05-10T14:06:44;18.67;74.34
64599;SHT31;51008;51.504;11.548;2023-05-10T14:11:45;18.43;74.51
64599;SHT31;51008;51.504;11.548;2023-05-10T14:16:46;18.56;75.70
64599;SHT31;51008;51.504;11.548;2023-05-10T14:21:47;18.44;76.59
64599;SHT31;51008;51.504;11.548;2023-05-10T14:26:48;18.44;76.62
64599;SHT31;51008;51.504;11.548;2023-05-10T14:31:49;18.17;75.39
64599;SHT31;51008;51.504;11.548;2023-05-10T14:36:50;18.08;76.21
64599;SHT31;51008;51.504;11.548;2023-05-10T14:41:51;17.91;76.62
64599;SHT31;51008;51.504;11.548;2023-05-10T14:46:52;17.80;77.18
64599;SHT31;51008;51.504;11.548;2023-05-10T14:51:53;17.44;78.98
64599;SHT31;51008;51.504;11.548;2023-05-10T14:56:54;17.35;78.16
64599;SHT31;51008;51.504;11.548;2023-05-10T15:01:55;17.05;79.35
64599;SHT31;51008;51.504;11.548;2023-05-10T15:06:56;17.12;79.14
64599;SHT31;51008;51.504;11.548;2023-05-10T15:11:57;16.91;81.19
64599;SHT31;51008;51.504;11.548;2023-05-10T15:16:58;16.81;81.65
64599;SHT31;51008;51.504;11.548;2023-05-10T15:21:59;16.89;82.37
64599;SHT31;51008;51.504;11.548;2023-05-10T15:27:00;16.98;82.74
64599;SHT31;51008;51.504;11.548;2023-05-10T15:32:01;17.02;82.22
64599;SHT31;51008;51.504;11.548;2023-05-10T15:37:02;16.98;81.61
64599;SHT31;51008;51.504;11.548;2023-05-10T15:42:03;17.02;81.60
64599;SHT31;51008;51.504;11.548;2023-05-10T15:47:05;17.18;82.24
64599;SHT31;51008;51.504;11.548;2023-05-10T15:52:06;17.30;81.92
64599;SHT31;51008;51.504;11.548;2023-05-10T15:57:07;17.46;81.14
64599;SHT31;51008;51.504;11.548;2023-05-10T16:02:08;17.40;80.20
64599;SHT31;51008;51.504;11.548;2023-05-10T16:07:09;17.33;80.65
64599;SHT31;51008;51.504;11.548;2023-05-10T16:12:11;17.33;81.07
64599;SHT31;51008;51.504;11.548;2023-05-10T16:17:12;17.27;81.04
64599;SHT31;51008;51.504;11.548;2023-05-10T16:22:13;17.25;81.60
64599;SHT31;51008;51.504;11.548;2023-05-10T16:27:17;17.22;81.40
64599;SHT31;51008;51.504;11.548;2023-05-10T16:32:18;17.18;82.09
64599;SHT31;51008;51.504;11.548;2023-05-10T16:37:19;17.22;82.19
64599;SHT31;51008;51.504;11.548;2023-05-10T16:42:20;17.22;81.93
64599;SHT31;51008;51.504;11.548;2023-05-10T16:47:21;17.09;82.02
64599;SHT31;51008;51.504;11.548;2023-05-10T16:52:22;16.87;82.76
64599;SHT31;51008;51.504;11.548;2023-05-10T16:57:23;16.94;82.83
64599;SHT31;51008;51.504;11.548;2023-05-10T17:02:24;16.91;82.94
64599;SHT31;51008;51.504;11.548;2023-05-10T17:07:25;16.89;83.94
64599;SHT31;51008;51.504;11.548;2023-05-10T17:12:26;16.81;83.84
64599;SHT31;51008;51.504;11.548;2023-05-10T17:17:26;16.81;83.97
64599;SHT31;51008;51.504;11.548;2023-05-10T17:22:27;16.70;84.39
64599;SHT31;51008;51.504;11.548;2023-05-10T17:27:28;16.59;85.26
64599;SHT31;51008;51.504;11.548;2023-05-10T17:32:29;16.36;86.60
64599;SHT31;51008;51.504;11.548;2023-05-10T17:37:32;16.33;86.72
64599;SHT31;51008;51.504;11.548;2023-05-10T17:42:33;16.16;87.22
64599;SHT31;51008;51.504;11.548;2023-05-10T17:47:34;16.05;87.39
64599;SHT31;51008;51.504;11.548;2023-05-10T17:52:35;15.98;87.40
64599;SHT31;51008;51.504;11.548;2023-05-10T17:57:36;15.84;88.20
64599;SHT31;51008;51.504;11.548;2023-05-10T18:02:37;15.71;88.31
64599;SHT31;51008;51.504;11.548;2023-05-10T18:07:38;15.60;89.54
64599;SHT31;51008;51.504;11.548;2023-05-10T18:12:39;15.52;89.93
64599;SHT31;51008;51.504;11.548;2023-05-10T18:17:40;15.46;90.09
64599;SHT31;51008;51.504;11.548;2023-05-10T18:22:41;15.40;90.20
64599;SHT31;51008;51.504;11.548;2023-05-10T18:27:42;15.40;90.22
64599;SHT31;51008;51.504;11.548;2023-05-10T18:32:43;15.31;90.38
64599;SHT31;51008;51.504;11.548;2023-05-10T18:37:44;15.19;90.66
64599;SHT31;51008;51.504;11.548;2023-05-10T18:42:45;15.12;90.78
64599;SHT31;51008;51.504;11.548;2023-05-10T18:47:46;15.07;90.72
64599;SHT31;51008;51.504;11.548;2023-05-10T18:52:47;14.95;90.82
64599;SHT31;51008;51.504;11.548;2023-05-10T18:57:48;14.91;90.93
64599;SHT31;51008;51.504;11.548;2023-05-10T19:02:49;14.83;91.13
64599;SHT31;51008;51.504;11.548;2023-05-10T19:07:50;14.83;91.17
64599;SHT31;51008;51.504;11.548;2023-05-10T19:12:51;14.84;91.30
64599;SHT31;51008;51.504;11.548;2023-05-10T19:17:52;14.87;91.13
64599;SHT31;51008;51.504;11.548;2023-05-10T19:22:53;14.79;91.15
64599;SHT31;51008;51.504;11.548;2023-05-10T19:27:55;14.79;91.23
64599;SHT31;51008;51.504;11.548;2023-05-10T19:32:56;14.73;91.59
64599;SHT31;51008;51.504;11.548;2023-05-10T19:37:57;14.67;91.94
64599;SHT31;51008;51.504;11.548;2023-05-10T19:42:58;14.60;91.84
64599;SHT31;51008;51.504;11.548;2023-05-10T19:47:59;14.56;91.73
64599;SHT31;51008;51.504;11.548;2023-05-10T19:53:00;14.49;91.65
64599;SHT31;51008;51.504;11.548;2023-05-10T19:58:02;14.39;91.97
64599;SHT31;51008;51.504;11.548;2023-05-10T20:03:03;14.29;92.60
64599;SHT31;51008;51.504;11.548;2023-05-10T20:08:04;14.22;92.47
64599;SHT31;51008;51.504;11.548;2023-05-10T20:13:05;14.21;92.64
64599;SHT31;51008;51.504;11.548;2023-05-10T20:18:06;14.25;92.87
64599;SHT31;51008;51.504;11.548;2023-05-10T20:23:07;14.25;92.73
64599;SHT31;51008;51.504;11.548;2023-05-10T20:28:08;14.22;92.61
64599;SHT31;51008;51.504;11.548;2023-05-10T20:33:09;14.17;92.01
64599;SHT31;51008;51.504;11.548;2023-05-10T20:38:10;14.10;91.61
64599;SHT31;51008;51.504;11.548;2023-05-10T20:43:14;14.05;91.11
64599;SHT31;51008;51.504;11.548;2023-05-10T20:48:14;13.93;90.75
64599;SHT31;51008;51.504;11.548;2023-05-10T20:53:15;13.91;90.41
64599;SHT31;51008;51.504;11.548;2023-05-10T20:58:16;13.88;90.70
64599;SHT31;51008;51.504;11.548;2023-05-10T21:03:17;13.85;91.17
64599;SHT31;51008;51.504;11.548;2023-05-10T21:08:18;13.71;91.29
64599;SHT31;51008;51.504;11.548;2023-05-10T21:13:19;13.66;91.60
64599;SHT31;51008;51.504;11.548;2023-05-10T21:18:20;13.62;91.44
64599;SHT31;51008;51.504;11.548;2023-05-10T21:23:21;13.59;91.76
64599;SHT31;51008;51.504;11.548;2023-05-10T21:28:22;13.59;92.40
64599;SHT31;51008;51.504;11.548;2023-05-10T21:33:23;13.49;93.02
64599;SHT31;51008;51.504;11.548;2023-05-10T21:38:26;13.49;93.39
64599;SHT31;51008;51.504;11.548;2023-05-10T21:43:27;13.43;93.94
64599;SHT31;51008;51.504;11.548;2023-05-10T21:48:28;13.43;94.11
64599;SHT31;51008;51.504;11.548;2023-05-10T21:53:29;13.40;94.39
64599;SHT31;51008;51.504;11.548;2023-05-10T21:58:30;13.38;94.32
64599;SHT31;51008;51.504;11.548;2023-05-10T22:03:31;13.34;94.44
64599;SHT31;51008;51.504;11.548;2023-05-10T22:08:32;13.29;94.03
64599;SHT31;51008;51.504;11.548;2023-05-10T22:13:33;13.28;93.77
64599;SHT31;51008;51.504;11.548;2023-05-10T22:18:34;13.28;93.82
64599;SHT31;51008;51.504;11.548;2023-05-10T22:23:34;13.21;93.85
64599;SHT31;51008;51.504;11.548;2023-05-10T22:28:35;13.18;94.22
64599;SHT31;51008;51.504;11.548;2023-05-10T22:33:36;13.14;94.09
64599;SHT31;51008;51.504;11.548;2023-05-10T22:38:37;13.10;94.13
64599;SHT31;51008;51.504;11.548;2023-05-10T22:43:38;13.08;94.07
64599;SHT31;51008;51.504;11.548;2023-05-10T22:48:40;13.08;94.25
64599;SHT31;51008;51.504;11.548;2023-05-10T22:53:41;13.05;94.24
64599;SHT31;51008;51.504;11.548;2023-05-10T22:58:42;13.04;94.40
64599;SHT31;51008;51.504;11.548;2023-05-10T23:03:43;13.05;94.21
64599;SHT31;51008;51.504;11.548;2023-05-10T23:08:44;13.04;94.09
64599;SHT31;51008;51.504;11.548;2023-05-10T23:13:45;13.03;94.35
64599;SHT31;51008;51.504;11.548;2023-05-10T23:18:46;12.97;94.46
64599;SHT31;51008;51.504;11.548;2023-05-10T23:23:47;13.00;94.46
64599;SHT31;51008;51.504;11.548;2023-05-10T23:28:48;13.00;94.47
64599;SHT31;51008;51.504;11.548;2023-05-10T23:33:49;13.01;94.57
64599;SHT31;51008;51.504;11.548;2023-05-10T23:38:50;12.97;94.59
64599;SHT31;51008;51.504;11.548;2023-05-10T23:43:51;12.97;94.52
64599;SHT31;51008;51.504;11.548;2023-05-10T23:48:52;12.88;94.67
64599;SHT31;51008;51.504;11.548;2023-05-10T23:53:53;12.86;94.87
64599;SHT31;51008;51.504;11.548;2023-05-10T23:58:53;12.84;95.04
